Open Full Screen Window  High Contrast Mode
Wind Gusting 00 knots
05
March 27, 2015 2:53 AM EDT
Weather Information
Wind Direction
  010 °
Wind Speed
  05 kt (6 mph)
Wind Gust
  00 kt (0 mph)
Altimeter
29.96 in
Visibility
10 SM
Temperature
03° C
37° F
Dewpoint
-01° C
30° F
Humidity
75%
1hr Rain Fall
00.00 in.
24hr Rain Fall
00.56 in.
Sky Condition
Clear
VFR

METAR KI69 270653Z AUTO 01005KT 10SM CLR 03/M01 A2996 RMK AO1

*Background is not an actual portrayal of the airport.